Time;durP1;ratioP1;P1;durP2;ratioP2;P2;SDS_P1;SDS_P2;PMS_P1;PMS_P2;Temp;Humidity;BMP_temperature;BMP_pressure;BME280_temperature;BME280_humidity;BME280_pressure;Samples;Min_cycle;Max_cycle;Signal;HPM_P1;HPM_P2
2021/03/29 00:00:49;;;;;;;;;;;;;;;21.69;24.56;99076.00;5044976;28;709;-77
2021/03/29 00:03:15;;;;;;;;;;;;;;;21.61;24.95;99083.00;5061317;28;852;-76
2021/03/29 00:05:41;;;;;;;;;;;;;;;21.43;25.08;99082.34;5044614;28;922;-76
2021/03/29 00:08:11;;;;;;;;;;;;;;;21.66;24.86;99082.53;5044258;28;999;-77
2021/03/29 00:10:37;;;;;;;;;;;;;;;21.44;25.01;99069.78;5044178;28;1097;-77
2021/03/29 00:13:03;;;;;;;;;;;;;;;21.62;24.65;99073.25;5044562;28;758;-77
2021/03/29 00:15:29;;;;;;;;;;;;;;;20.82;25.75;99074.25;5044355;28;1981;-77
2021/03/29 00:17:55;;;;;;;;;;;;;;;21.24;25.13;99064.69;5061192;28;872;-77
2021/03/29 00:20:21;;;;;;;;;;;;;;;22.28;23.66;99070.13;5043959;28;897;-77
2021/03/29 00:22:46;;;;;;;;;;;;;;;22.44;23.57;99063.84;5044099;28;881;-76
2021/03/29 00:25:12;;;;;;;;;;;;;;;22.42;23.21;99065.50;5044109;28;649;-77
2021/03/29 00:27:38;;;;;;;;;;;;;;;22.05;23.83;99065.09;5061425;28;672;-77
2021/03/29 00:30:07;;;;;;;;;;;;;;;21.93;23.92;99070.53;5061194;28;645;-77
2021/03/29 00:32:33;;;;;;;;;;;;;;;21.83;23.99;99056.03;5061153;28;984;-76
2021/03/29 00:34:58;;;;;;;;;;;;;;;21.78;24.44;99064.19;5043403;28;1894;-77
2021/03/29 00:37:24;;;;;;;;;;;;;;;21.67;24.53;99072.81;5044191;28;872;-77
2021/03/29 00:39:49;;;;;;;;;;;;;;;21.67;24.62;99069.19;5061080;28;686;-77
2021/03/29 00:42:16;;;;;;;;;;;;;;;21.62;24.65;99070.44;5061462;28;758;-77
2021/03/29 00:44:41;;;;;;;;;;;;;;;21.70;24.34;99076.81;5043826;28;670;-76
2021/03/29 00:47:07;;;;;;;;;;;;;;;21.62;24.43;99070.44;5043928;28;1087;-77
2021/03/29 00:49:33;;;;;;;;;;;;;;;22.00;24.11;99068.41;5043258;28;942;-76
2021/03/29 00:51:59;;;;;;;;;;;;;;;22.32;23.50;99073.72;5043943;28;1058;-77
2021/03/29 00:54:24;;;;;;;;;;;;;;;22.47;23.16;99073.53;5043472;28;662;-77
2021/03/29 00:56:49;;;;;;;;;;;;;;;22.11;23.78;99099.47;5060238;28;1963;-76
2021/03/29 00:59:15;;;;;;;;;;;;;;;21.95;23.81;99085.06;5043799;28;798;-76
2021/03/29 01:01:42;;;;;;;;;;;;;;;21.74;23.96;99081.22;5043585;28;879;-77
2021/03/29 01:04:07;;;;;;;;;;;;;;;21.83;24.05;99089.25;5060369;28;918;-76
2021/03/29 01:06:51;;;;;;;;;;;;;;;21.55;24.58;99081.81;5043994;28;1003;-77
2021/03/29 01:09:18;;;;;;;;;;;;;;;21.68;24.24;99091.41;5060429;28;978;-77
2021/03/29 01:11:52;;;;;;;;;;;;;;;21.78;24.20;99093.31;5043865;28;661;-77
2021/03/29 01:14:28;;;;;;;;;;;;;;;21.66;24.37;99099.53;5060476;28;634;-77
2021/03/29 01:17:13;;;;;;;;;;;;;;;21.69;24.32;99093.00;5060699;28;875;-76
2021/03/29 01:19:45;;;;;;;;;;;;;;;21.57;24.23;99102.03;5059710;28;1056;-76
2021/03/29 01:22:10;;;;;;;;;;;;;;;21.81;24.01;99106.66;5060999;28;654;-77
2021/03/29 01:24:54;;;;;;;;;;;;;;;22.24;23.31;99111.09;5060475;28;842;-76
2021/03/29 01:27:21;;;;;;;;;;;;;;;22.49;23.07;99122.13;5060951;28;687;-76
2021/03/29 01:29:47;;;;;;;;;;;;;;;22.06;23.71;99111.25;5060226;28;677;-77
2021/03/29 01:32:12;;;;;;;;;;;;;;;21.76;23.76;99115.63;5043243;28;931;-77
2021/03/29 01:34:38;;;;;;;;;;;;;;;21.70;24.20;99117.28;5042865;28;1911;-77
2021/03/29 01:37:03;;;;;;;;;;;;;;;21.42;24.33;99128.88;5043376;28;1058;-77
2021/03/29 01:39:29;;;;;;;;;;;;;;;21.59;23.97;99119.41;5043072;28;706;-76
2021/03/29 01:41:54;;;;;;;;;;;;;;;21.67;24.15;99120.16;5043386;28;647;-76
2021/03/29 01:44:20;;;;;;;;;;;;;;;21.72;23.76;99117.69;5043098;28;1320;-77
2021/03/29 01:46:45;;;;;;;;;;;;;;;21.64;23.98;99115.31;5042943;28;964;-77
2021/03/29 01:49:11;;;;;;;;;;;;;;;21.59;24.09;99122.22;5042738;28;950;-77
2021/03/29 01:51:36;;;;;;;;;;;;;;;21.60;24.13;99106.84;5043298;28;973;-76
2021/03/29 01:54:02;;;;;;;;;;;;;;;22.00;23.40;99118.59;5042924;28;611;-76
2021/03/29 01:56:27;;;;;;;;;;;;;;;22.26;23.10;99120.78;5043349;28;1910;-77
2021/03/29 01:58:53;;;;;;;;;;;;;;;22.47;22.81;99118.91;5060254;28;614;-77
2021/03/29 02:01:18;;;;;;;;;;;;;;;22.16;23.18;99127.38;5060421;28;883;-76
2021/03/29 02:03:44;;;;;;;;;;;;;;;21.96;23.56;99120.66;5042425;28;887;-77
2021/03/29 02:06:09;;;;;;;;;;;;;;;21.75;23.55;99125.31;5043374;28;980;-77
2021/03/29 02:08:35;;;;;;;;;;;;;;;21.69;23.66;99127.00;5061951;28;673;-76
2021/03/29 02:11:00;;;;;;;;;;;;;;;21.71;23.51;99124.56;5047202;28;1141;-75
2021/03/29 02:13:26;;;;;;;;;;;;;;;21.60;23.74;99129.50;5063540;28;634;-77
2021/03/29 02:15:56;;;;;;;;;;;;;;;21.51;23.83;99132.03;5046662;28;1905;-77
2021/03/29 02:18:22;;;;;;;;;;;;;;;21.53;23.79;99136.03;5045855;28;966;-76
2021/03/29 02:20:47;;;;;;;;;;;;;;;21.67;23.86;99126.63;5064178;28;1095;-77
2021/03/29 02:23:15;;;;;;;;;;;;;;;21.50;23.71;99144.56;5046229;28;777;-76
2021/03/29 02:25:40;;;;;;;;;;;;;;;21.58;23.81;99149.75;5046904;28;699;-76
2021/03/29 02:28:06;;;;;;;;;;;;;;;21.57;24.01;99153.00;5046310;28;743;-77
2021/03/29 02:30:35;;;;;;;;;;;;;;;21.44;24.11;99154.72;5063796;28;1000;-77
2021/03/29 02:33:01;;;;;;;;;;;;;;;21.59;23.86;99156.22;5045782;28;876;-77
2021/03/29 02:35:26;;;;;;;;;;;;;;;22.16;23.28;99155.72;5046349;28;1963;-77
2021/03/29 02:37:53;;;;;;;;;;;;;;;22.34;22.63;99149.88;5046057;28;710;-77
2021/03/29 02:40:20;;;;;;;;;;;;;;;22.39;22.51;99142.94;5045968;28;595;-77
2021/03/29 02:42:46;;;;;;;;;;;;;;;21.90;23.24;99136.53;5063369;28;650;-76
2021/03/29 02:45:12;;;;;;;;;;;;;;;21.82;23.15;99130.94;5045955;28;1077;-77
2021/03/29 02:47:38;;;;;;;;;;;;;;;21.69;23.67;99137.53;5046062;28;884;-77
2021/03/29 02:50:06;;;;;;;;;;;;;;;21.77;23.35;99133.41;5045729;28;833;-70
2021/03/29 02:52:31;;;;;;;;;;;;;;;21.73;23.58;99138.31;5063721;28;650;-76
2021/03/29 02:54:57;;;;;;;;;;;;;;;21.55;23.84;99138.44;5045803;28;1910;-77
2021/03/29 02:57:22;;;;;;;;;;;;;;;21.53;23.76;99135.25;5063810;28;660;-77
2021/03/29 02:59:48;;;;;;;;;;;;;;;21.64;23.71;99135.94;5045356;28;983;-77
2021/03/29 03:02:13;;;;;;;;;;;;;;;21.64;23.57;99146.47;5063452;28;824;-77
2021/03/29 03:04:39;;;;;;;;;;;;;;;21.96;23.21;99141.31;5045752;28;887;-76
2021/03/29 03:07:04;;;;;;;;;;;;;;;22.18;22.74;99147.59;5063301;28;611;-76
2021/03/29 03:09:30;;;;;;;;;;;;;;;22.33;22.70;99159.59;5045346;28;1119;-76
2021/03/29 03:11:55;;;;;;;;;;;;;;;22.05;22.85;99160.66;5045905;28;670;-77
2021/03/29 03:14:20;;;;;;;;;;;;;;;21.94;23.21;99165.63;5045341;28;848;-77
2021/03/29 03:16:46;;;;;;;;;;;;;;;21.56;23.74;99176.91;5045592;28;1971;-77
2021/03/29 03:19:11;;;;;;;;;;;;;;;21.72;23.76;99179.19;5044494;28;993;-76
2021/03/29 03:21:37;;;;;;;;;;;;;;;21.75;23.25;99184.81;5062720;28;661;-76
2021/03/29 03:24:03;;;;;;;;;;;;;;;21.53;23.95;99197.53;5045186;28;687;-77
2021/03/29 03:26:28;;;;;;;;;;;;;;;21.50;24.12;99201.19;5045807;28;607;-77
2021/03/29 03:28:54;;;;;;;;;;;;;;;21.55;24.05;99195.91;5061816;28;945;-76
2021/03/29 03:31:19;;;;;;;;;;;;;;;21.55;23.92;99203.59;5062528;28;898;-77
2021/03/29 03:33:45;;;;;;;;;;;;;;;21.68;23.62;99204.72;5044700;28;1074;-77
2021/03/29 03:36:10;;;;;;;;;;;;;;;22.07;23.32;99203.53;5062924;28;1902;-76
2021/03/29 03:38:40;;;;;;;;;;;;;;;22.22;22.88;99205.06;5044502;28;635;-77
2021/03/29 03:41:10;;;;;;;;;;;;;;;22.06;23.18;99201.94;5045527;28;706;-77
2021/03/29 03:43:37;;;;;;;;;;;;;;;21.95;23.22;99218.25;5061447;28;897;-77
2021/03/29 03:46:04;;;;;;;;;;;;;;;21.82;23.50;99215.94;5062464;28;862;-76
2021/03/29 03:48:29;;;;;;;;;;;;;;;21.83;23.49;99211.88;5044372;28;936;-77
2021/03/29 03:50:55;;;;;;;;;;;;;;;21.63;23.91;99213.66;5045148;28;766;-76
2021/03/29 03:53:20;;;;;;;;;;;;;;;21.61;23.62;99209.63;5044364;28;859;-76
2021/03/29 03:55:47;;;;;;;;;;;;;;;21.48;23.92;99212.13;5044926;28;1967;-76
2021/03/29 03:58:22;;;;;;;;;;;;;;;21.41;23.78;99206.53;5043721;28;871;-77
2021/03/29 04:00:48;;;;;;;;;;;;;;;21.46;24.08;99214.59;5061713;28;860;-76
2021/03/29 04:03:19;;;;;;;;;;;;;;;21.41;23.95;99209.38;5061747;28;644;-76
2021/03/29 04:05:45;;;;;;;;;;;;;;;21.58;23.88;99216.94;5061963;28;670;-77
2021/03/29 04:08:16;;;;;;;;;;;;;;;21.79;23.62;99213.91;5044815;28;766;-77
2021/03/29 04:10:43;;;;;;;;;;;;;;;22.22;23.18;99210.72;5061956;28;974;-77
2021/03/29 04:13:22;;;;;;;;;;;;;;;22.43;22.69;99206.06;5061016;28;972;-77
2021/03/29 04:15:47;;;;;;;;;;;;;;;22.34;22.53;99213.03;5061513;28;1933;-76
2021/03/29 04:18:13;;;;;;;;;;;;;;;22.00;23.25;99212.13;5043779;28;1042;-76
2021/03/29 04:20:38;;;;;;;;;;;;;;;21.84;23.51;99218.34;5061786;28;610;-76
2021/03/29 04:23:04;;;;;;;;;;;;;;;21.90;23.29;99222.34;5061380;28;650;-76
2021/03/29 04:25:29;;;;;;;;;;;;;;;21.63;23.94;99219.31;5061390;28;675;-76
2021/03/29 04:27:55;;;;;;;;;;;;;;;21.67;23.73;99214.44;5043822;28;871;-76
2021/03/29 04:30:20;;;;;;;;;;;;;;;21.49;24.10;99225.06;5061004;28;874;-77
2021/03/29 04:32:46;;;;;;;;;;;;;;;21.55;23.73;99223.41;5060129;28;1095;-75
2021/03/29 04:35:13;;;;;;;;;;;;;;;21.40;24.05;99224.72;5060833;28;1902;-76
2021/03/29 04:37:38;;;;;;;;;;;;;;;21.44;23.83;99219.84;5061093;28;1197;-77
2021/03/29 04:40:04;;;;;;;;;;;;;;;21.64;23.38;99229.41;5043366;28;1361;-77
2021/03/29 04:42:30;;;;;;;;;;;;;;;21.43;23.68;99226.75;5060619;28;1171;-77
2021/03/29 04:44:55;;;;;;;;;;;;;;;21.50;23.69;99226.69;5060356;28;1253;-77
2021/03/29 04:47:21;;;;;;;;;;;;;;;21.44;23.87;99231.19;5060889;28;1249;-76
2021/03/29 04:49:46;;;;;;;;;;;;;;;21.84;23.09;99236.16;5060451;28;1162;-77
2021/03/29 04:52:12;;;;;;;;;;;;;;;22.05;23.05;99229.50;5060799;28;1201;-77
2021/03/29 04:54:37;;;;;;;;;;;;;;;22.41;22.44;99222.69;5060266;28;1961;-77
2021/03/29 04:57:03;;;;;;;;;;;;;;;22.28;22.68;99226.06;5060554;28;1163;-77
2021/03/29 04:59:28;;;;;;;;;;;;;;;22.03;23.02;99220.59;5059771;28;1063;-76
2021/03/29 05:01:54;;;;;;;;;;;;;;;21.88;23.17;99229.66;5060714;28;1249;-77
2021/03/29 05:04:19;;;;;;;;;;;;;;;21.64;23.53;99229.41;5043185;28;1236;-76
2021/03/29 05:06:45;;;;;;;;;;;;;;;21.62;23.47;99234.69;5044331;28;1197;-77
2021/03/29 05:09:10;;;;;;;;;;;;;;;21.64;23.41;99232.25;5059792;28;1316;-76
2021/03/29 05:11:48;;;;;;;;;;;;;;;21.66;23.43;99229.81;5043222;28;1158;-77
2021/03/29 05:14:14;;;;;;;;;;;;;;;21.68;23.27;99227.38;5059580;28;1099;-76
2021/03/29 05:16:40;;;;;;;;;;;;;;;21.51;23.54;99229.13;5042451;28;1914;-76
2021/03/29 05:19:06;;;;;;;;;;;;;;;21.63;23.59;99230.66;5060011;28;1190;-76
2021/03/29 05:21:31;;;;;;;;;;;;;;;21.56;23.48;99236.38;5043462;28;1177;-77
2021/03/29 05:23:57;;;;;;;;;;;;;;;21.64;23.28;99232.25;5060055;28;1281;-77
2021/03/29 05:26:22;;;;;;;;;;;;;;;21.46;23.52;99237.25;5060842;28;1027;-76
2021/03/29 05:28:48;;;;;;;;;;;;;;;21.45;23.71;99235.59;5059926;28;911;-77
2021/03/29 05:31:13;;;;;;;;;;;;;;;21.55;23.54;99229.91;5061114;28;884;-77
2021/03/29 05:33:39;;;;;;;;;;;;;;;21.98;22.94;99237.25;5060169;28;738;-77
2021/03/29 05:36:07;;;;;;;;;;;;;;;22.38;22.50;99229.19;5060959;28;1983;-77
2021/03/29 05:38:33;;;;;;;;;;;;;;;22.43;22.37;99231.56;5059933;28;694;-76
2021/03/29 05:40:58;;;;;;;;;;;;;;;21.94;22.96;99239.31;5060741;28;1010;-75
2021/03/29 05:43:23;;;;;;;;;;;;;;;21.76;23.28;99231.78;5061668;28;883;-76
2021/03/29 05:45:50;;;;;;;;;;;;;;;21.53;23.56;99234.34;5064877;28;1005;-77
2021/03/29 05:48:15;;;;;;;;;;;;;;;22.06;22.61;99235.97;5064080;28;592;-77
2021/03/29 05:50:40;;;;;;;;;;;;;;;22.33;22.37;99236.97;5064699;28;712;-77
2021/03/29 05:53:06;;;;;;;;;;;;;;;22.47;22.16;99232.34;5064963;28;588;-77
2021/03/29 05:55:33;;;;;;;;;;;;;;;22.24;22.28;99235.84;5046739;28;1977;-77
2021/03/29 06:00:32;;;;;;;;;;;;;;;21.69;23.23;99243.13;5046949;28;931;-77
2021/03/29 06:03:17;;;;;;;;;;;;;;;21.57;23.61;99233.13;5064017;28;661;-76
2021/03/29 06:05:43;;;;;;;;;;;;;;;21.57;23.43;99237.97;5047672;28;1616;-77
2021/03/29 06:08:09;;;;;;;;;;;;;;;21.59;23.41;99239.16;5064084;28;1014;-77
2021/03/29 06:10:34;;;;;;;;;;;;;;;21.54;23.47;99238.78;5046673;28;961;-76
2021/03/29 06:13:00;;;;;;;;;;;;;;;21.66;23.12;99229.81;5045814;28;982;-76
2021/03/29 06:15:27;;;;;;;;;;;;;;;22.08;22.69;99239.19;5046428;28;1973;-76
2021/03/29 06:18:08;;;;;;;;;;;;;;;22.28;22.56;99240.25;5046228;28;854;-77
2021/03/29 06:20:34;;;;;;;;;;;;;;;22.27;22.26;99230.13;5046688;28;615;-76
2021/03/29 06:22:59;;;;;;;;;;;;;;;22.15;22.44;99221.34;5046347;28;636;-76
2021/03/29 06:25:25;;;;;;;;;;;;;;;21.75;23.20;99238.63;5046180;28;1295;-77
2021/03/29 06:27:57;;;;;;;;;;;;;;;21.73;22.78;99235.44;5063707;28;1019;-77
2021/03/29 06:30:24;;;;;;;;;;;;;;;21.46;23.46;99232.38;5063751;28;816;-76
2021/03/29 06:32:53;;;;;;;;;;;;;;;21.60;23.47;99239.97;5046440;28;902;-76
2021/03/29 06:35:19;;;;;;;;;;;;;;;21.78;22.94;99237.81;5063461;28;1968;-77
2021/03/29 06:37:45;;;;;;;;;;;;;;;21.83;23.18;99245.88;5063694;28;734;-77
2021/03/29 06:40:10;;;;;;;;;;;;;;;21.78;23.10;99251.97;5045841;28;929;-77
2021/03/29 06:42:36;;;;;;;;;;;;;;;21.65;23.12;99244.38;5045565;28;875;-76
2021/03/29 06:45:12;;;;;;;;;;;;;;;21.59;23.09;99252.50;5063051;28;932;-77
2021/03/29 06:47:37;;;;;;;;;;;;;;;22.02;22.79;99252.19;5046173;28;707;-77
2021/03/29 06:50:03;;;;;;;;;;;;;;;22.30;22.55;99245.50;5063357;28;690;-76
2021/03/29 06:52:32;;;;;;;;;;;;;;;22.40;22.19;99250.25;5063654;28;679;-76
2021/03/29 06:55:16;;;;;;;;;;;;;;;22.18;22.28;99249.66;5061552;28;1973;-77
2021/03/29 06:57:41;;;;;;;;;;;;;;;21.83;22.93;99259.22;5063105;28;945;-76
2021/03/29 07:00:14;;;;;;;;;;;;;;;21.65;23.27;99265.00;5045653;28;726;-77
2021/03/29 07:02:43;;;;;;;;;;;;;;;21.69;23.18;99257.31;5063289;28;722;-77
2021/03/29 07:05:09;;;;;;;;;;;;;;;21.68;23.16;99255.69;5045874;28;794;-76
2021/03/29 07:07:36;;;;;;;;;;;;;;;21.60;23.26;99256.94;5063085;28;642;-76
2021/03/29 07:10:03;;;;;;;;;;;;;;;21.45;23.03;99256.25;5044492;28;1051;-77
2021/03/29 07:12:31;;;;;;;;;;;;;;;21.54;23.30;99262.25;5025912;28;1269;-76
2021/03/29 07:14:58;;;;;;;;;;;;;;;21.66;22.99;99260.97;5044722;28;1901;-77
2021/03/29 07:17:23;;;;;;;;;;;;;;;21.43;23.44;99258.69;5062707;28;1249;-76
2021/03/29 07:19:49;;;;;;;;;;;;;;;21.59;23.07;99253.31;5042321;28;1020;-77
2021/03/29 07:22:15;;;;;;;;;;;;;;;21.90;22.90;99258.38;5045012;28;1376;-77
2021/03/29 07:24:40;;;;;;;;;;;;;;;22.15;22.30;99250.50;5044492;28;1210;-75
2021/03/29 07:27:06;;;;;;;;;;;;;;;22.42;22.11;99252.66;5061986;28;1246;-77
2021/03/29 07:29:32;;;;;;;;;;;;;;;22.43;21.97;99255.06;5045057;28;1189;-76
2021/03/29 07:32:01;;;;;;;;;;;;;;;22.36;22.12;99243.81;5046119;28;793;-77
2021/03/29 07:34:49;;;;;;;;;;;;;;;21.78;22.71;99260.47;5062285;28;658;-76
2021/03/29 07:37:34;;;;;;;;;;;;;;;21.85;22.74;99260.41;5063003;28;596;-77
2021/03/29 07:40:03;;;;;;;;;;;;;;;21.51;22.97;99256.63;5061929;28;949;-76
2021/03/29 07:42:29;;;;;;;;;;;;;;;21.46;23.03;99260.69;5062234;28;871;-76
2021/03/29 07:44:55;;;;;;;;;;;;;;;21.48;22.98;99258.25;5061969;28;603;-77
2021/03/29 07:47:39;;;;;;;;;;;;;;;21.48;23.13;99252.59;5062568;28;674;-76
2021/03/29 07:50:05;;;;;;;;;;;;;;;22.06;22.63;99258.63;5062066;28;623;-76
2021/03/29 07:52:31;;;;;;;;;;;;;;;22.24;22.04;99259.31;5062185;28;619;-76
2021/03/29 07:54:57;;;;;;;;;;;;;;;22.43;21.98;99255.06;5061852;28;1964;-76
2021/03/29 07:57:42;;;;;;;;;;;;;;;22.09;22.35;99258.59;5044706;28;1031;-76
2021/03/29 08:00:07;;;;;;;;;;;;;;;21.82;22.66;99252.75;5061448;28;937;-76
2021/03/29 08:02:36;;;;;;;;;;;;;;;21.78;22.64;99254.81;5062894;28;651;-76
2021/03/29 08:05:15;;;;;;;;;;;;;;;21.64;22.88;99249.25;5062025;28;786;-77
2021/03/29 08:07:41;;;;;;;;;;;;;;;21.65;23.10;99252.88;5062076;28;642;-76
2021/03/29 08:10:10;;;;;;;;;;;;;;;21.70;22.68;99247.56;5044367;28;1127;-76
2021/03/29 08:12:36;;;;;;;;;;;;;;;21.67;22.72;99258.94;5061453;28;807;-76
2021/03/29 08:15:02;;;;;;;;;;;;;;;21.74;22.98;99259.69;5060995;28;1971;-77
2021/03/29 08:17:35;;;;;;;;;;;;;;;21.64;22.95;99254.91;5044519;28;1026;-77
2021/03/29 08:20:33;;;;;;;;;;;;;;;22.03;22.35;99240.44;5043594;28;763;-77
2021/03/29 08:23:17;;;;;;;;;;;;;;;22.39;21.60;99236.50;5007353;28;1173;-77
2021/03/29 08:25:43;;;;;;;;;;;;;;;22.18;22.10;99241.16;5061426;28;869;-76
2021/03/29 08:28:08;;;;;;;;;;;;;;;22.01;22.33;99253.41;5060877;28;980;-76
2021/03/29 08:30:39;;;;;;;;;;;;;;;21.92;22.24;99241.78;5044403;28;645;-77
2021/03/29 08:33:08;;;;;;;;;;;;;;;21.81;22.29;99237.00;5061077;28;678;-76
2021/03/29 08:35:34;;;;;;;;;;;;;;;21.82;22.41;99238.59;5061510;28;1906;-76
2021/03/29 08:37:59;;;;;;;;;;;;;;;21.60;22.49;99231.47;5061273;28;713;-77
2021/03/29 08:40:25;;;;;;;;;;;;;;;21.79;22.42;99233.75;5043885;28;1339;-76
2021/03/29 08:42:52;;;;;;;;;;;;;;;21.72;22.36;99228.16;5061406;28;654;-76
2021/03/29 08:45:19;;;;;;;;;;;;;;;21.61;22.47;99233.09;5060792;28;991;-76
2021/03/29 08:47:45;;;;;;;;;;;;;;;21.53;22.87;99231.53;5060694;28;813;-76
2021/03/29 08:50:17;;;;;;;;;;;;;;;21.40;22.78;99216.22;5060822;28;829;-76
2021/03/29 08:52:42;;;;;;;;;;;;;;;21.58;22.90;99214.09;5044296;28;587;-76
2021/03/29 08:55:08;;;;;;;;;;;;;;;22.01;22.14;99206.03;5060939;28;1905;-77
2021/03/29 08:57:33;;;;;;;;;;;;;;;22.33;21.55;99214.28;5061181;28;575;-77
2021/03/29 08:59:59;;;;;;;;;;;;;;;22.42;21.33;99212.97;5060403;28;899;-77
2021/03/29 09:02:25;;;;;;;;;;;;;;;21.98;21.85;99206.09;5043443;28;851;-77
2021/03/29 09:04:54;;;;;;;;;;;;;;;21.93;22.25;99203.69;5043499;28;888;-77
2021/03/29 09:07:20;;;;;;;;;;;;;;;21.85;22.18;99198.09;5061416;28;722;-76
2021/03/29 09:09:46;;;;;;;;;;;;;;;21.87;22.05;99185.53;5060688;28;1130;-77
2021/03/29 09:12:24;;;;;;;;;;;;;;;21.72;22.39;99185.66;5043269;28;898;-76
2021/03/29 09:14:50;;;;;;;;;;;;;;;21.74;22.20;99196.56;5042361;28;1989;-77
2021/03/29 09:17:22;;;;;;;;;;;;;;;21.59;22.56;99195.88;5043249;28;922;-77
2021/03/29 09:19:50;;;;;;;;;;;;;;;21.66;22.44;99178.84;5060721;28;635;-77
2021/03/29 09:22:25;;;;;;;;;;;;;;;21.64;22.31;99178.44;5060983;28;650;-77
2021/03/29 09:24:50;;;;;;;;;;;;;;;21.76;22.24;99160.13;5042782;28;918;-76
2021/03/29 09:27:16;;;;;;;;;;;;;;;21.83;22.06;99172.22;5060701;28;646;-76
2021/03/29 09:29:41;;;;;;;;;;;;;;;22.12;21.66;99171.94;5060680;28;635;-76
2021/03/29 09:32:13;;;;;;;;;;;;;;;22.26;21.25;99171.00;5060579;28;831;-76
2021/03/29 09:34:39;;;;;;;;;;;;;;;22.40;21.16;99173.69;5042738;28;931;-77
2021/03/29 09:37:15;;;;;;;;;;;;;;;21.97;21.52;99181.81;5060658;28;1976;-76
2021/03/29 09:39:40;;;;;;;;;;;;;;;21.92;21.52;99176.59;5060374;28;642;-76
2021/03/29 09:42:06;;;;;;;;;;;;;;;21.89;21.71;99168.91;5043532;28;654;-76
2021/03/29 09:44:33;;;;;;;;;;;;;;;21.91;21.74;99169.28;5060287;28;681;-76
2021/03/29 09:46:59;;;;;;;;;;;;;;;22.45;20.85;99166.75;5060457;28;970;-77
2021/03/29 09:49:24;;;;;;;;;;;;;;;22.61;20.46;99164.13;5059828;28;1168;-76
2021/03/29 09:51:51;;;;;;;;;;;;;;;21.92;21.20;99153.94;5043478;28;981;-76
2021/03/29 09:54:19;;;;;;;;;;;;;;;21.96;21.31;99160.34;5060043;28;679;-77
2021/03/29 09:56:44;;;;;;;;;;;;;;;21.88;21.24;99161.66;5060705;28;1973;-76
2021/03/29 09:59:10;;;;;;;;;;;;;;;21.78;21.24;99146.34;5060065;28;630;-76
2021/03/29 10:01:42;;;;;;;;;;;;;;;21.70;21.50;99151.25;5060217;28;1089;-77
2021/03/29 10:04:11;;;;;;;;;;;;;;;21.74;21.52;99152.03;5059533;28;912;-77
2021/03/29 10:06:37;;;;;;;;;;;;;;;21.74;21.27;99151.25;5060900;28;969;-76
2021/03/29 10:09:03;;;;;;;;;;;;;;;21.74;21.15;99152.03;5059861;28;1084;-77
2021/03/29 10:11:44;;;;;;;;;;;;;;;22.20;20.57;99150.81;5060640;28;685;-76
2021/03/29 10:14:09;;;;;;;;;;;;;;;22.29;20.31;99153.97;5042039;28;799;-76
2021/03/29 10:16:44;;;;;;;;;;;;;;;22.42;20.20;99144.91;5060212;28;1963;-77
2021/03/29 10:19:11;;;;;;;;;;;;;;;21.74;21.00;99152.03;5059446;28;986;-76
2021/03/29 10:21:55;;;;;;;;;;;;;;;22.04;20.58;99151.34;5043329;28;641;-76
2021/03/29 10:24:21;;;;;;;;;;;;;;;21.94;20.86;99154.31;5059800;28;682;-76
2021/03/29 10:26:56;;;;;;;;;;;;;;;21.92;20.56;99151.09;5060419;28;669;-76
2021/03/29 10:29:28;;;;;;;;;;;;;;;21.66;20.98;99144.84;5061066;28;1091;-77
2021/03/29 10:31:53;;;;;;;;;;;;;;;21.59;21.26;99150.56;5043238;28;1088;-76
2021/03/29 10:34:19;;;;;;;;;;;;;;;21.68;20.86;99141.59;5062543;28;1185;-76
2021/03/29 10:36:45;;;;;;;;;;;;;;;22.11;20.16;99136.31;5062966;28;1985;-77
2021/03/29 10:39:10;;;;;;;;;;;;;;;22.30;20.04;99143.41;5062756;28;1182;-77
2021/03/29 10:41:35;;;;;;;;;;;;;;;22.54;19.85;99124.50;5063326;28;1162;-77
2021/03/29 10:44:01;;;;;;;;;;;;;;;22.45;20.00;99132.72;5009047;28;1281;-76
2021/03/29 10:46:28;;;;;;;;;;;;;;;22.26;19.99;99132.13;5062678;28;1281;-77
2021/03/29 10:48:53;;;;;;;;;;;;;;;22.12;20.34;99125.78;5044977;28;1126;-76
2021/03/29 10:51:18;;;;;;;;;;;;;;;21.53;20.79;99123.91;5063587;28;1123;-76
2021/03/29 10:53:44;;;;;;;;;;;;;;;21.80;20.47;99116.38;5062562;28;1198;-76
2021/03/29 10:56:09;;;;;;;;;;;;;;;21.80;20.73;99107.88;5062966;28;1905;-77
2021/03/29 10:58:35;;;;;;;;;;;;;;;21.76;20.77;99109.94;5062160;28;1240;-77
2021/03/29 11:01:01;;;;;;;;;;;;;;;20.47;20.83;98939.59;5045157;28;1189;-77
2021/03/29 11:03:26;;;;;;;;;;;;;;;21.74;20.69;99112.38;5062032;28;1297;-77
2021/03/29 11:05:52;;;;;;;;;;;;;;;21.89;20.19;99115.09;5063020;28;1249;-76
2021/03/29 11:08:19;;;;;;;;;;;;;;;22.05;20.07;99115.31;5062180;28;1186;-76
2021/03/29 11:10:44;;;;;;;;;;;;;;;22.29;19.91;99117.09;5062531;28;1394;-77
2021/03/29 11:13:10;;;;;;;;;;;;;;;22.54;19.48;99108.28;5035796;28;1179;-76
2021/03/29 11:15:36;;;;;;;;;;;;;;;22.37;19.63;99112.13;5044666;28;2007;-76
2021/03/29 11:18:04;;;;;;;;;;;;;;;21.90;20.27;99096.84;5044589;28;1288;-77
2021/03/29 11:20:29;;;;;;;;;;;;;;;21.80;20.49;99093.69;5045369;28;1275;-76
2021/03/29 11:22:55;;;;;;;;;;;;;;;21.82;20.26;99085.59;5044654;28;1213;-76
2021/03/29 11:25:20;;;;;;;;;;;;;;;21.89;20.24;99096.06;5062253;28;1178;-76
2021/03/29 11:27:46;;;;;;;;;;;;;;;21.76;20.16;99098.63;5062179;28;1293;-76
2021/03/29 11:30:13;;;;;;;;;;;;;;;21.92;19.97;99088.75;5044699;28;1468;-76
2021/03/29 11:32:43;;;;;;;;;;;;;;;22.29;19.50;99091.59;5059200;28;1161;-76
2021/03/29 11:35:08;;;;;;;;;;;;;;;22.27;19.77;99084.72;5062158;28;1972;-75
2021/03/29 11:37:34;;;;;;;;;;;;;;;22.16;19.66;99082.00;5062658;28;650;-77
2021/03/29 11:39:59;;;;;;;;;;;;;;;21.94;20.16;99091.97;5062066;28;766;-77
2021/03/29 11:42:25;;;;;;;;;;;;;;;21.84;20.34;99074.63;5062448;28;715;-76
2021/03/29 11:44:51;;;;;;;;;;;;;;;21.54;20.41;99064.00;5061609;28;1000;-76
2021/03/29 11:47:16;;;;;;;;;;;;;;;21.58;20.60;99061.16;5062027;28;908;-75
2021/03/29 11:49:42;;;;;;;;;;;;;;;21.66;20.54;99048.53;5061587;28;960;-76
2021/03/29 11:52:07;;;;;;;;;;;;;;;21.64;20.53;99048.13;5062208;28;599;-76
2021/03/29 11:54:33;;;;;;;;;;;;;;;21.90;19.98;99040.97;5061526;28;714;-76
2021/03/29 11:56:59;;;;;;;;;;;;;;;22.41;19.49;99049.72;5062220;28;1902;-76
2021/03/29 11:59:26;;;;;;;;;;;;;;;22.33;19.41;99041.31;5061040;28;971;-76
2021/03/29 12:02:05;;;;;;;;;;;;;;;22.32;19.48;99051.03;5061649;28;845;-76
2021/03/29 12:04:39;;;;;;;;;;;;;;;21.99;19.85;99049.00;5046368;28;663;-76
2021/03/29 12:07:13;;;;;;;;;;;;;;;21.98;20.08;99047.38;5045437;28;734;-76
2021/03/29 12:12:23;;;;;;;;;;;;;;;21.79;20.21;99029.78;5061518;28;603;-76
2021/03/29 12:14:48;;;;;;;;;;;;;;;21.81;20.12;99030.16;5043645;28;893;-76
2021/03/29 12:17:14;;;;;;;;;;;;;;;21.99;19.56;99029.16;5061495;28;1898;-75
2021/03/29 12:19:41;;;;;;;;;;;;;;;22.12;19.59;99041.56;5061001;28;933;-76
2021/03/29 12:22:10;;;;;;;;;;;;;;;22.51;19.25;99029.72;5061794;28;599;-75
2021/03/29 12:24:36;;;;;;;;;;;;;;;22.55;18.88;99029.66;5060934;28;662;-76
2021/03/29 12:27:02;;;;;;;;;;;;;;;22.00;19.52;99034.38;5061612;28;623;-76
2021/03/29 12:29:39;;;;;;;;;;;;;;;21.76;19.96;99036.31;5060418;28;826;-76
2021/03/29 12:32:10;;;;;;;;;;;;;;;21.58;20.28;99035.66;5029038;28;1247;-75
2021/03/29 12:34:37;;;;;;;;;;;;;;;21.55;19.99;99017.50;5061076;28;702;-76
2021/03/29 12:37:03;;;;;;;;;;;;;;;21.70;19.99;99026.63;5043632;28;1972;-76
2021/03/29 12:39:35;;;;;;;;;;;;;;;21.88;19.64;99028.47;5060776;28;612;-76
2021/03/29 12:42:02;;;;;;;;;;;;;;;22.01;19.68;99026.69;5044819;28;667;-75
2021/03/29 12:44:28;;;;;;;;;;;;;;;21.83;19.78;99024.88;5043246;28;958;-76
2021/03/29 12:46:57;;;;;;;;;;;;;;;21.69;19.86;99029.88;5060899;28;890;-75
2021/03/29 12:49:22;;;;;;;;;;;;;;;21.70;19.93;99015.28;5060658;28;1013;-76
2021/03/29 12:51:52;;;;;;;;;;;;;;;22.11;19.17;99011.63;5060398;28;611;-75
2021/03/29 12:54:24;;;;;;;;;;;;;;;22.39;19.12;99009.66;5060198;28;650;-76
2021/03/29 12:56:50;;;;;;;;;;;;;;;22.28;19.03;99007.75;5060908;28;1902;-76
2021/03/29 12:59:17;;;;;;;;;;;;;;;21.94;19.37;99009.78;5060011;28;1081;-75
2021/03/29 13:01:43;;;;;;;;;;;;;;;21.84;19.28;99015.16;5060901;28;847;-76
2021/03/29 13:04:18;;;;;;;;;;;;;;;21.92;19.58;99009.41;5060636;28;874;-76
2021/03/29 13:07:03;;;;;;;;;;;;;;;21.91;19.27;99007.78;5061144;28;766;-76
2021/03/29 13:12:13;;;;;;;;;;;;;;;21.44;19.96;98999.00;5060899;28;683;-79